Time;durP1;ratioP1;P1;durP2;ratioP2;P2;SDS_P1;SDS_P2;PMS_P1;PMS_P2;Temp;Humidity;BMP_temperature;BMP_pressure;BME280_temperature;BME280_humidity;BME280_pressure;Samples;Min_cycle;Max_cycle;Signal;HPM_P1;HPM_P2
2022/05/20 00:00:58;;;;;;;13.98;7.82;;;13.10;99.90;;;;;;5022330;28;73540;-72
2022/05/20 00:03:25;;;;;;;15.30;8.25;;;13.10;99.90;;;;;;4970345;28;217542;-68
2022/05/20 00:05:51;;;;;;;14.32;8.20;;;13.10;99.90;;;;;;5011022;28;130912;-72
2022/05/20 00:08:17;;;;;;;14.07;7.70;;;13.10;99.90;;;;;;5021580;28;20054;-72
2022/05/20 00:10:43;;;;;;;14.25;7.90;;;13.20;99.90;;;;;;4967128;28;216478;-72
2022/05/20 00:13:10;;;;;;;16.20;8.18;;;13.20;99.90;;;;;;5033589;28;20057;-71
2022/05/20 00:15:36;;;;;;;14.55;8.32;;;13.20;99.90;;;;;;4949369;28;205843;-72
2022/05/20 00:18:02;;;;;;;16.17;8.43;;;13.20;99.90;;;;;;5010040;28;20058;-73
2022/05/20 00:20:29;;;;;;;14.90;9.20;;;13.10;99.90;;;;;;4979880;28;213161;-72
2022/05/20 00:22:55;;;;;;;16.73;9.35;;;13.20;99.90;;;;;;5020322;28;20671;-73
2022/05/20 00:28:09;;;;;;;15.43;9.13;;;13.20;99.90;;;;;;5008051;28;20057;-72
2022/05/20 00:30:35;;;;;;;14.82;9.98;;;13.10;99.90;;;;;;4974687;28;208976;-71
2022/05/20 00:33:02;;;;;;;15.52;9.57;;;13.10;99.90;;;;;;5009433;28;20037;-72
2022/05/20 00:35:28;;;;;;;16.65;10.32;;;13.10;99.90;;;;;;4964417;28;208279;-71
2022/05/20 00:37:54;;;;;;;19.15;10.88;;;13.10;99.90;;;;;;5017854;28;20049;-71
2022/05/20 00:40:25;;;;;;;17.13;11.10;;;13.20;99.90;;;;;;4975697;28;218600;-70
2022/05/20 00:43:00;;;;;;;16.75;10.90;;;13.10;99.90;;;;;;5008851;28;21504;-70
2022/05/20 00:45:26;;;;;;;18.33;11.35;;;13.10;99.90;;;;;;4978442;28;222820;-72
2022/05/20 00:47:52;;;;;;;18.27;10.05;;;13.10;99.90;;;;;;5002569;28;20057;-72
2022/05/20 00:50:18;;;;;;;15.35;10.98;;;13.20;99.90;;;;;;4971415;28;211565;-72
2022/05/20 00:52:48;;;;;;;20.83;11.70;;;13.20;99.90;;;;;;5009020;28;20046;-71
2022/05/20 00:55:19;;;;;;;16.90;11.43;;;13.20;99.90;;;;;;4971883;28;210014;-72
2022/05/20 00:57:56;;;;;;;17.50;11.27;;;13.20;99.90;;;;;;5003063;28;20061;-72
2022/05/20 01:00:26;;;;;;;16.63;10.80;;;13.10;99.90;;;;;;4978126;28;209755;-71
2022/05/20 01:02:57;;;;;;;17.88;10.98;;;13.10;99.90;;;;;;5001319;28;20395;-72
2022/05/20 01:05:41;;;;;;;;;;;13.10;99.90;;;;;;4969598;28;206071;-71
2022/05/20 01:08:08;;;;;;;16.23;11.00;;;13.10;99.90;;;;;;5037935;28;19921;-72
2022/05/20 01:10:35;;;;;;;17.15;10.93;;;13.10;99.90;;;;;;4997569;28;242469;-73
2022/05/20 01:13:01;;;;;;;15.02;10.00;;;13.10;99.90;;;;;;5018512;28;20053;-72
2022/05/20 01:15:28;;;;;;;15.90;9.77;;;13.10;99.90;;;;;;4952909;28;209522;-72
2022/05/20 01:17:56;;;;;;;17.95;9.57;;;13.10;99.90;;;;;;5021047;28;20049;-71
2022/05/20 01:20:29;;;;;;;16.98;9.15;;;13.10;99.90;;;;;;4954413;28;238741;-71
2022/05/20 01:22:58;;;;;;;16.83;9.10;;;13.00;99.90;;;;;;5020021;28;20073;-71
2022/05/20 01:25:27;;;;;;;17.73;9.23;;;13.00;99.90;;;;;;4956299;28;209018;-71
2022/05/20 01:27:53;;;;;;;16.27;8.68;;;13.00;99.90;;;;;;5003546;28;20054;-70
2022/05/20 01:30:22;;;;;;;15.68;9.55;;;13.00;99.90;;;;;;4971548;28;234377;-70
2022/05/20 01:32:49;;;;;;;16.52;9.40;;;13.00;99.90;;;;;;5034663;28;20376;-72
2022/05/20 01:35:24;;;;;;;17.13;10.27;;;13.00;99.90;;;;;;4970988;28;211451;-71
2022/05/20 01:37:50;;;;;;;15.13;9.90;;;13.10;99.90;;;;;;5035351;28;20068;-71
2022/05/20 01:40:16;;;;;;;19.38;10.40;;;13.00;99.90;;;;;;4956613;28;205998;-72
2022/05/20 01:42:50;;;;;;;16.73;11.10;;;13.00;99.90;;;;;;5008834;28;20526;-71
2022/05/20 01:45:32;;;;;;;17.08;10.77;;;13.00;99.90;;;;;;4985997;28;198656;-72
2022/05/20 01:48:22;;;;;;;17.45;11.40;;;13.00;99.90;;;;;;5013620;28;20065;-73
2022/05/20 01:50:55;;;;;;;17.73;11.05;;;12.90;99.90;;;;;;4972446;28;313359;-73
2022/05/20 01:53:39;;;;;;;17.45;11.77;;;12.90;99.90;;;;;;4995242;28;207404;-72
2022/05/20 01:56:29;;;;;;;18.92;11.82;;;12.90;99.90;;;;;;4956451;28;186363;-71
2022/05/20 01:58:55;;;;;;;18.30;11.23;;;12.80;99.90;;;;;;4964443;28;222844;-71
2022/05/20 02:01:28;;;;;;;18.95;11.30;;;12.80;99.90;;;;;;4997352;28;104248;-71
2022/05/20 02:03:59;;;;;;;18.58;11.00;;;12.80;99.90;;;;;;4966060;28;217420;-71
2022/05/20 02:06:38;;;;;;;18.25;11.48;;;12.80;99.90;;;;;;4982380;28;153740;-70
2022/05/20 02:09:12;;;;;;;17.75;11.35;;;12.70;99.90;;;;;;4953290;28;244515;-71
2022/05/20 02:11:47;;;;;;;20.90;11.95;;;12.70;99.90;;;;;;5004841;28;20058;-71
2022/05/20 02:14:43;;;;;;;15.83;10.13;;;12.70;99.90;;;;;;4949804;28;206756;-70
2022/05/20 02:17:13;;;;;;;19.52;11.35;;;12.70;99.90;;;;;;5016753;28;20129;-71
2022/05/20 02:19:47;;;;;;;17.45;11.43;;;12.60;99.90;;;;;;4960077;28;205992;-72
2022/05/20 02:22:22;;;;;;;20.45;11.95;;;12.60;99.90;;;;;;5008049;28;20061;-71
2022/05/20 02:24:50;;;;;;;16.05;10.60;;;12.60;99.90;;;;;;4955613;28;214113;-71
2022/05/20 02:27:24;;;;;;;16.92;10.18;;;12.50;99.90;;;;;;5002900;28;20069;-71
2022/05/20 02:30:03;;;;;;;18.17;11.77;;;12.50;99.90;;;;;;4963872;28;212264;-71
2022/05/20 02:32:43;;;;;;;18.58;11.27;;;12.40;99.90;;;;;;5002913;28;20068;-72
2022/05/20 02:35:09;;;;;;;18.95;11.35;;;12.40;99.90;;;;;;4974884;28;209600;-71
2022/05/20 02:37:37;;;;;;;20.55;11.07;;;12.30;99.90;;;;;;5003090;28;20049;-71
2022/05/20 02:40:06;;;;;;;17.17;10.25;;;12.30;99.90;;;;;;4961941;28;231516;-71
2022/05/20 02:42:33;;;;;;;19.48;10.82;;;12.30;99.90;;;;;;5002210;28;20190;-70
2022/05/20 02:45:00;;;;;;;17.08;11.27;;;12.20;99.90;;;;;;4965032;28;229445;-72
2022/05/20 02:47:33;;;;;;;20.05;12.05;;;12.20;99.90;;;;;;5004131;28;20053;-72
2022/05/20 02:50:10;;;;;;;16.67;10.80;;;12.20;99.90;;;;;;4980154;28;214804;-71
2022/05/20 02:52:37;;;;;;;15.68;10.13;;;12.20;99.90;;;;;;5002132;28;20053;-71
2022/05/20 02:55:05;;;;;;;17.60;11.60;;;12.10;99.90;;;;;;4953052;28;213799;-70
2022/05/20 02:57:31;;;;;;;15.25;9.63;;;12.10;99.90;;;;;;5000801;28;20177;-71
2022/05/20 03:05:26;;;;;;;18.45;11.60;;;12.00;99.90;;;;;;4945355;28;240779;-73
2022/05/20 03:07:52;;;;;;;19.35;11.48;;;11.90;99.90;;;;;;5034907;28;20056;-72
2022/05/20 03:10:19;;;;;;;16.42;11.07;;;11.90;99.90;;;;;;4972758;28;210037;-69
2022/05/20 03:12:45;;;;;;;18.17;10.98;;;11.90;99.90;;;;;;5014144;28;20042;-72
2022/05/20 03:15:13;;;;;;;24.88;12.80;;;11.80;99.90;;;;;;4958787;28;222897;-73
2022/05/20 03:17:39;;;;;;;19.50;12.02;;;11.80;99.90;;;;;;5009819;28;20476;-72
2022/05/20 03:20:08;;;;;;;16.92;11.40;;;11.80;99.90;;;;;;4951823;28;227031;-72
2022/05/20 03:22:36;;;;;;;22.95;11.98;;;11.80;99.90;;;;;;5006232;28;20064;-72
2022/05/20 03:25:04;;;;;;;19.60;12.18;;;11.80;99.90;;;;;;4958838;28;206788;-71
2022/05/20 03:27:31;;;;;;;19.88;12.43;;;11.80;99.90;;;;;;5014974;28;20037;-71
2022/05/20 03:29:58;;;;;;;20.52;13.30;;;11.70;99.90;;;;;;4960601;28;201890;-72
2022/05/20 03:32:24;;;;;;;19.60;12.48;;;11.70;99.90;;;;;;5007501;28;20662;-72
2022/05/20 03:34:50;;;;;;;21.02;14.25;;;11.70;99.90;;;;;;4973391;28;206349;-72
2022/05/20 03:37:17;;;;;;;18.83;12.57;;;11.70;99.90;;;;;;5005064;28;20811;-72
2022/05/20 03:39:43;;;;;;;21.52;12.70;;;11.70;99.90;;;;;;4965712;28;199155;-72
2022/05/20 03:42:09;;;;;;;19.42;13.52;;;11.70;99.90;;;;;;5018286;28;20049;-72
2022/05/20 03:44:35;;;;;;;21.63;13.55;;;11.60;99.90;;;;;;4957582;28;242407;-71
2022/05/20 03:47:02;;;;;;;25.98;15.70;;;11.70;99.90;;;;;;5008250;28;20050;-71
2022/05/20 03:49:30;;;;;;;21.52;14.10;;;11.60;99.90;;;;;;4955583;28;208469;-71
2022/05/20 03:51:57;;;;;;;20.00;12.95;;;11.60;99.90;;;;;;5011307;28;20065;-71
2022/05/20 03:54:25;;;;;;;20.10;14.18;;;11.60;99.90;;;;;;4957782;28;213223;-71
2022/05/20 03:56:52;;;;;;;19.58;13.05;;;11.60;99.90;;;;;;5006959;28;20046;-70
2022/05/20 03:59:18;;;;;;;21.15;14.38;;;11.60;99.90;;;;;;4953995;28;232513;-70
2022/05/20 04:01:57;;;;;;;18.48;13.25;;;11.60;99.90;;;;;;5009986;28;20042;-71
2022/05/20 04:04:31;;;;;;;22.10;13.20;;;11.70;99.90;;;;;;4938982;28;210441;-71
2022/05/20 04:06:59;;;;;;;19.48;13.27;;;11.70;99.90;;;;;;5009123;28;20550;-71
2022/05/20 04:09:25;;;;;;;22.75;14.65;;;11.70;99.90;;;;;;4962161;28;213572;-70
2022/05/20 04:11:55;;;;;;;26.83;16.45;;;11.70;99.90;;;;;;5023972;28;20496;-72
2022/05/20 04:14:23;;;;;;;26.63;15.50;;;11.70;99.90;;;;;;4959612;28;205426;-71
2022/05/20 04:16:57;;;;;;;26.75;16.33;;;11.80;99.90;;;;;;5009710;28;20046;-71
2022/05/20 04:19:28;;;;;;;24.45;16.42;;;11.80;99.90;;;;;;4958406;28;207964;-70
2022/05/20 04:21:58;;;;;;;26.65;17.17;;;11.80;99.90;;;;;;5003760;28;20054;-72
2022/05/20 04:24:24;;;;;;;24.58;15.93;;;11.90;99.90;;;;;;4957543;28;206538;-71
2022/05/20 04:26:51;;;;;;;23.92;15.18;;;11.90;99.90;;;;;;5007325;28;20069;-71
2022/05/20 04:29:18;;;;;;;26.20;15.65;;;11.90;99.90;;;;;;4956936;28;206510;-70
2022/05/20 04:31:47;;;;;;;24.73;14.52;;;11.90;99.90;;;;;;5010908;28;20061;-71
2022/05/20 04:34:13;;;;;;;21.45;14.93;;;11.90;99.90;;;;;;4968077;28;206954;-72
2022/05/20 04:36:40;;;;;;;23.88;15.73;;;11.90;99.90;;;;;;5010034;28;20475;-72
2022/05/20 04:39:07;;;;;;;19.70;14.77;;;11.90;99.90;;;;;;4954200;28;206186;-72
2022/05/20 04:47:06;;;;;;;24.38;17.92;;;12.00;99.90;;;;;;5020937;28;20045;-71
2022/05/20 04:49:32;;;;;;;19.17;14.50;;;12.00;99.90;;;;;;4955534;28;225184;-71
2022/05/20 04:52:02;;;;;;;21.80;12.70;;;12.00;99.90;;;;;;5021085;28;20049;-71
2022/05/20 04:57:36;;;;;;;21.45;14.65;;;12.10;99.90;;;;;;5015083;28;20061;-71
2022/05/20 05:00:09;;;;;;;23.35;14.52;;;12.20;99.90;;;;;;4971738;28;212143;-71
2022/05/20 05:02:35;;;;;;;21.67;15.25;;;12.20;99.90;;;;;;5000461;28;20049;-70
2022/05/20 05:05:02;;;;;;;20.20;15.18;;;12.20;99.90;;;;;;4950235;28;214608;-70
2022/05/20 05:07:28;;;;;;;20.13;14.70;;;12.30;99.90;;;;;;5013235;28;20582;-71
2022/05/20 05:09:55;;;;;;;20.35;13.95;;;12.40;99.90;;;;;;4968734;28;212874;-71
2022/05/20 05:12:22;;;;;;;23.13;15.15;;;12.50;99.90;;;;;;5007231;28;20391;-71
2022/05/20 05:14:50;;;;;;;20.83;14.00;;;12.50;99.90;;;;;;4958644;28;243990;-71
2022/05/20 05:20:09;;;;;;;;;;;12.70;99.90;;;;;;4975936;28;253710;-71
2022/05/20 05:22:35;;;;;;;19.00;13.55;;;12.70;99.90;;;;;;5003771;28;19925;-70
2022/05/20 05:25:01;;;;;;;20.38;13.82;;;12.80;99.90;;;;;;4961279;28;216930;-71
2022/05/20 05:27:27;;;;;;;20.80;13.65;;;12.80;99.90;;;;;;5005020;28;20068;-71
2022/05/20 05:29:54;;;;;;;19.77;13.18;;;12.90;99.90;;;;;;4963645;28;210929;-71
2022/05/20 05:32:20;;;;;;;17.83;12.23;;;12.90;99.90;;;;;;5004398;28;20518;-71
2022/05/20 05:34:46;;;;;;;19.23;12.00;;;13.00;99.90;;;;;;4955264;28;231878;-71
2022/05/20 05:37:12;;;;;;;15.75;9.80;;;13.00;99.90;;;;;;5004292;28;20064;-71
2022/05/20 05:39:38;;;;;;;19.75;11.13;;;13.10;99.90;;;;;;4956151;28;215298;-71
2022/05/20 05:42:05;;;;;;;21.77;12.43;;;13.20;99.90;;;;;;5013558;28;20130;-71
2022/05/20 05:44:31;;;;;;;16.60;10.57;;;13.30;99.90;;;;;;4960028;28;205743;-72
2022/05/20 05:46:57;;;;;;;18.48;10.30;;;13.40;99.90;;;;;;5007499;28;20423;-70
2022/05/20 05:49:23;;;;;;;17.33;8.50;;;13.50;99.90;;;;;;4950854;28;206072;-71
2022/05/20 05:51:50;;;;;;;17.67;8.98;;;13.50;99.90;;;;;;5016990;28;20057;-71
2022/05/20 05:54:17;;;;;;;18.33;8.73;;;13.60;99.90;;;;;;4955048;28;209599;-71
2022/05/20 05:56:43;;;;;;;18.45;8.90;;;13.70;99.90;;;;;;5022530;28;20514;-73
2022/05/20 05:59:10;;;;;;;19.15;8.98;;;14.00;99.90;;;;;;4951031;28;207303;-71
2022/05/20 06:01:36;;;;;;;16.25;7.97;;;14.40;99.90;;;;;;4999731;28;20053;-71
2022/05/20 06:04:02;;;;;;;15.18;7.03;;;14.70;99.90;;;;;;4945527;28;210900;-72
2022/05/20 06:06:28;;;;;;;15.57;6.40;;;15.00;99.90;;;;;;5018814;28;20053;-70
2022/05/20 06:08:55;;;;;;;15.13;6.15;;;15.30;99.90;;;;;;4969033;28;220259;-71
2022/05/20 06:11:22;;;;;;;12.55;6.07;;;15.40;99.90;;;;;;4971006;28;187260;-71
2022/05/20 06:13:48;;;;;;;17.77;6.93;;;15.70;99.90;;;;;;4939937;28;228248;-71
2022/05/20 06:16:19;;;;;;;12.40;5.90;;;16.00;99.90;;;;;;4998975;28;49154;-70
2022/05/20 06:18:45;;;;;;;;;;;16.10;99.90;;;;;;4940675;28;213379;-71
2022/05/20 06:21:11;;;;;;;14.18;5.90;;;16.00;99.90;;;;;;4978499;28;242824;-71
2022/05/20 06:23:37;;;;;;;14.93;6.70;;;15.90;99.90;;;;;;4939531;28;229430;-72
2022/05/20 06:26:03;;;;;;;11.95;6.38;;;16.00;99.90;;;;;;5003055;28;43527;-71
2022/05/20 06:28:30;;;;;;;15.75;6.65;;;16.10;99.90;;;;;;4942332;28;209704;-71
2022/05/20 06:30:57;;;;;;;14.05;6.18;;;16.20;99.90;;;;;;4984548;28;186198;-72
2022/05/20 06:33:24;;;;;;;14.93;6.20;;;16.30;99.90;;;;;;4956877;28;214131;-72
2022/05/20 06:41:19;;;;;;;13.20;5.65;;;16.80;99.90;;;;;;4999131;28;20105;-70
2022/05/20 06:43:46;;;;;;;14.50;4.93;;;17.00;99.90;;;;;;4938926;28;213334;-70
2022/05/20 06:46:13;;;;;;;13.30;4.80;;;17.20;99.90;;;;;;4960919;28;222657;-70
2022/05/20 06:48:44;;;;;;;10.77;4.10;;;17.40;99.90;;;;;;4939463;28;219713;-69
2022/05/20 06:51:12;;;;;;;10.30;3.88;;;17.50;99.90;;;;;;4999848;28;179580;-71
2022/05/20 06:53:39;;;;;;;13.27;4.30;;;17.80;99.90;;;;;;4951021;28;210236;-70
2022/05/20 06:56:06;;;;;;;12.40;4.13;;;18.00;99.90;;;;;;5007006;28;32648;-70
2022/05/20 06:58:33;;;;;;;11.75;4.43;;;18.10;99.90;;;;;;4951888;28;219382;-70
2022/05/20 07:00:59;;;;;;;10.57;4.53;;;18.30;99.90;;;;;;5005172;28;89285;-70
2022/05/20 07:03:25;;;;;;;11.83;4.40;;;18.20;99.90;;;;;;4944718;28;213777;-70
2022/05/20 07:05:52;;;;;;;11.00;3.92;;;18.50;99.90;;;;;;4988513;28;148326;-69
2022/05/20 07:08:18;;;;;;;12.85;4.05;;;18.60;99.90;;;;;;4988179;28;20057;-69
2022/05/20 07:10:45;;;;;;;11.88;3.70;;;18.90;99.90;;;;;;4948286;28;248449;-70
2022/05/20 07:13:12;;;;;;;11.40;3.72;;;19.00;99.90;;;;;;4988157;28;20058;-70
2022/05/20 07:15:38;;;;;;;11.57;4.18;;;19.00;99.90;;;;;;4954518;28;210233;-69
2022/05/20 07:18:05;;;;;;;10.82;4.05;;;19.00;99.90;;;;;;4989163;28;20057;-69
2022/05/20 07:20:31;;;;;;;10.35;4.22;;;18.90;99.90;;;;;;4957880;28;230086;-69
2022/05/20 07:22:57;;;;;;;10.38;4.07;;;18.90;99.90;;;;;;4990494;28;20388;-70
2022/05/20 07:25:23;;;;;;;11.48;3.80;;;19.30;99.90;;;;;;4953191;28;246421;-70
2022/05/20 07:27:49;;;;;;;12.55;3.80;;;19.60;99.90;;;;;;5016586;28;20403;-70
2022/05/20 07:30:16;;;;;;;10.85;3.65;;;19.90;99.90;;;;;;4947836;28;217457;-71
2022/05/20 07:32:42;;;;;;;11.20;3.42;;;20.10;99.90;;;;;;4984259;28;20062;-69
2022/05/20 07:35:11;;;;;;;22.35;4.03;;;20.10;99.90;;;;;;4941092;28;245431;-70
2022/05/20 07:37:37;;;;;;;10.38;3.25;;;20.40;99.90;;;;;;4984363;28;20058;-70
2022/05/20 07:40:05;;;;;;;11.32;3.45;;;20.70;99.90;;;;;;4948884;28;211115;-71
2022/05/20 07:42:31;;;;;;;10.32;3.05;;;20.90;99.90;;;;;;4986704;28;20372;-69
2022/05/20 07:44:57;;;;;;;11.77;3.45;;;21.30;99.90;;;;;;4959865;28;210446;-69
2022/05/20 07:47:24;;;;;;;10.98;3.92;;;21.50;99.90;;;;;;4997860;28;20034;-70
2022/05/20 07:49:50;;;;;;;10.05;3.70;;;21.40;99.90;;;;;;4949831;28;209335;-70
2022/05/20 07:55:04;;;;;;;12.40;4.13;;;21.40;99.90;;;;;;4942893;28;214195;-70
2022/05/20 07:57:31;;;;;;;12.60;4.70;;;21.30;99.90;;;;;;4985287;28;20050;-71
2022/05/20 07:59:57;;;;;;;10.80;4.60;;;20.90;99.90;;;;;;4949108;28;222696;-70
2022/05/20 08:02:26;;;;;;;10.77;4.80;;;20.30;99.90;;;;;;4987190;28;20061;-69
2022/05/20 08:04:58;;;;;;;10.35;4.18;;;20.20;99.90;;;;;;4937276;28;207003;-73
2022/05/20 08:07:48;;;;;;;12.00;4.32;;;20.30;99.90;;;;;;5002647;28;20050;-70
2022/05/20 08:10:19;;;;;;;13.77;4.68;;;20.60;99.90;;;;;;4963010;28;251731;-71
2022/05/20 08:12:46;;;;;;;11.18;4.47;;;20.80;99.90;;;;;;4998941;28;20058;-71
2022/05/20 08:15:13;;;;;;;10.18;4.47;;;21.00;99.90;;;;;;4958454;28;213472;-70
2022/05/20 08:17:40;;;;;;;11.73;4.45;;;21.30;99.90;;;;;;4996564;28;20046;-72
2022/05/20 08:20:09;;;;;;;9.60;4.30;;;21.40;99.90;;;;;;4945112;28;229806;-70
2022/05/20 08:22:36;;;;;;;10.93;4.43;;;21.40;99.90;;;;;;4985491;28;20062;-70
2022/05/20 08:25:03;;;;;;;10.75;4.30;;;21.40;99.90;;;;;;4963649;28;218907;-70
2022/05/20 08:27:31;;;;;;;11.38;4.00;;;21.50;99.30;;;;;;4987744;28;20522;-70
2022/05/20 08:30:01;;;;;;;10.27;4.38;;;21.20;98.00;;;;;;4953759;28;210574;-68
2022/05/20 08:32:27;;;;;;;11.00;4.20;;;20.90;98.80;;;;;;5002917;28;20523;-68
2022/05/20 08:34:53;;;;;;;12.25;4.47;;;20.80;99.50;;;;;;4967308;28;210166;-68
2022/05/20 08:37:19;;;;;;;11.38;4.68;;;20.80;99.40;;;;;;5012062;28;20054;-67
2022/05/20 08:39:46;;;;;;;10.90;4.60;;;20.70;98.50;;;;;;4968177;28;215348;-67
2022/05/20 08:42:17;;;;;;;10.32;4.68;;;20.40;98.70;;;;;;5003621;28;20415;-68
2022/05/20 08:44:44;;;;;;;13.00;4.85;;;20.50;99.20;;;;;;4956177;28;211986;-67
2022/05/20 08:47:39;;;;;;;11.07;4.47;;;20.90;99.90;;;;;;5011571;28;20058;-67
2022/05/20 08:50:12;;;;;;;11.38;4.80;;;21.40;99.90;;;;;;4981680;28;207604;-67
2022/05/20 08:52:38;;;;;;;9.93;4.25;;;21.70;98.80;;;;;;5006461;28;20058;-68
2022/05/20 08:55:05;;;;;;;11.35;4.40;;;22.00;99.20;;;;;;4964625;28;214552;-67
2022/05/20 08:57:33;;;;;;;11.18;4.03;;;22.20;98.00;;;;;;5010644;28;20050;-67
2022/05/20 09:00:03;;;;;;;10.27;4.38;;;21.90;97.90;;;;;;4967437;28;211597;-67
2022/05/20 09:02:29;;;;;;;13.18;4.25;;;21.90;98.20;;;;;;5014008;28;20054;-68
2022/05/20 09:04:55;;;;;;;10.48;4.25;;;22.10;97.70;;;;;;4940941;28;217710;-66
2022/05/20 09:07:23;;;;;;;9.40;3.67;;;22.30;97.30;;;;;;5003186;28;20061;-68
2022/05/20 09:09:50;;;;;;;9.65;3.85;;;22.30;96.80;;;;;;4954248;28;210957;-68
2022/05/20 09:12:38;;;;;;;11.30;4.28;;;22.50;96.70;;;;;;5015515;28;20053;-68
2022/05/20 09:18:07;;;;;;;9.73;3.72;;;23.00;96.20;;;;;;5012602;28;20041;-68
2022/05/20 09:20:33;;;;;;;10.15;3.35;;;23.30;95.20;;;;;;4952079;28;208140;-68
2022/05/20 09:23:03;;;;;;;10.63;3.33;;;23.40;94.40;;;;;;5012598;28;20049;-68
2022/05/20 09:25:36;;;;;;;9.18;3.45;;;23.50;94.20;;;;;;4975944;28;212178;-68
2022/05/20 09:28:23;;;;;;;10.55;3.83;;;23.50;94.20;;;;;;5020491;28;20442;-66
2022/05/20 09:30:54;;;;;;;10.52;3.40;;;23.80;93.70;;;;;;4954333;28;206135;-70
2022/05/20 09:33:27;;;;;;;9.75;3.40;;;23.80;90.20;;;;;;4993669;28;207784;-71
2022/05/20 09:36:00;;;;;;;10.85;3.60;;;23.80;90.80;;;;;;4994680;28;211163;-71
2022/05/20 09:38:43;;;;;;;9.85;3.40;;;23.90;91.50;;;;;;4957069;28;215931;-69
2022/05/20 09:41:16;;;;;;;8.77;2.80;;;24.10;90.70;;;;;;5011590;28;184260;-70
2022/05/20 09:43:50;;;;;;;9.27;3.30;;;24.30;90.80;;;;;;4976878;28;218906;-70
2022/05/20 09:46:44;;;;;;;8.77;2.60;;;24.20;86.30;;;;;;5016203;28;200143;-69
2022/05/20 09:49:16;;;;;;;8.38;3.10;;;24.10;81.60;;;;;;4979165;28;240743;-69
2022/05/20 09:51:54;;;;;;;9.10;2.97;;;23.90;85.40;;;;;;5029032;28;20176;-71
2022/05/20 09:54:44;;;;;;;9.30;2.97;;;23.80;83.40;;;;;;4963621;28;218653;-71
2022/05/20 09:57:21;;;;;;;11.50;3.05;;;23.80;82.00;;;;;;5017324;28;20111;-71
2022/05/20 09:59:56;;;;;;;8.85;3.40;;;23.60;83.50;;;;;;4963759;28;208416;-70
2022/05/20 10:02:34;;;;;;;10.30;3.38;;;23.50;84.40;;;;;;5016237;28;20056;-70
2022/05/20 10:05:23;;;;;;;8.80;3.20;;;23.50;85.80;;;;;;4945982;28;239945;-69
2022/05/20 10:07:58;;;;;;;10.05;3.50;;;23.30;84.20;;;;;;4945073;28;20556;-70
2022/05/20 10:10:42;;;;;;;9.80;3.38;;;23.20;86.00;;;;;;4905523;28;209134;-70
2022/05/20 10:13:22;;;;;;;9.75;3.58;;;23.20;84.60;;;;;;4958942;28;20443;-71
2022/05/20 10:15:51;;;;;;;9.75;3.05;;;23.20;83.50;;;;;;4903573;28;208916;-71
2022/05/20 10:18:34;;;;;;;9.32;3.00;;;23.30;82.80;;;;;;4945303;28;20066;-71
2022/05/20 10:21:08;;;;;;;9.15;3.10;;;23.40;85.40;;;;;;4899553;28;112682;-70
2022/05/20 10:24:12;;;;;;;11.18;3.60;;;23.50;85.50;;;;;;4898988;28;209152;-70
2022/05/20 10:26:55;;;;;;;8.57;2.95;;;23.70;83.70;;;;;;4945705;28;20066;-70
2022/05/20 10:32:36;;;;;;;9.48;3.10;;;23.50;80.40;;;;;;4935090;28;20093;-70
2022/05/20 10:35:09;;;;;;;9.35;2.80;;;23.40;79.40;;;;;;4888430;28;212428;-70
2022/05/20 10:37:56;;;;;;;10.00;3.10;;;23.60;79.80;;;;;;4933500;28;21631;-71
2022/05/20 10:40:25;;;;;;;8.35;2.80;;;23.80;78.30;;;;;;4905326;28;166019;-72
2022/05/20 10:43:21;;;;;;;9.27;3.33;;;24.00;80.50;;;;;;4945278;28;20058;-70
2022/05/20 10:48:49;;;;;;;11.55;3.20;;;24.00;74.20;;;;;;4978610;28;212241;-73
2022/05/20 10:51:34;;;;;;;9.63;3.28;;;24.00;70.90;;;;;;5021582;28;30907;-71
2022/05/20 10:54:14;;;;;;;8.40;3.55;;;24.00;75.40;;;;;;4964631;28;218283;-72
2022/05/20 10:56:43;;;;;;;;;;;24.20;75.30;;;;;;5024244;28;20063;-70
2022/05/20 10:59:36;;;;;;;8.83;2.97;;;24.40;71.50;;;;;;4953304;28;264989;-71
2022/05/20 11:02:24;;;;;;;7.80;2.90;;;24.50;72.40;;;;;;5019849;28;20054;-73
2022/05/20 11:05:09;;;;;;;8.02;2.72;;;24.60;67.70;;;;;;4955121;28;215273;-72
2022/05/20 11:07:50;;;;;;;9.23;3.00;;;24.70;69.40;;;;;;5001313;28;20058;-71
2022/05/20 11:10:50;;;;;;;9.70;2.95;;;24.80;71.60;;;;;;4987943;28;212367;-72
2022/05/20 11:13:22;;;;;;;10.20;3.40;;;25.00;70.60;;;;;;5017871;28;20062;-71
2022/05/20 11:15:56;;;;;;;8.88;3.20;;;25.20;68.80;;;;;;4961030;28;238025;-71
2022/05/20 11:18:31;;;;;;;8.35;3.03;;;25.40;68.60;;;;;;4994275;28;211829;-71
2022/05/20 11:21:09;;;;;;;8.10;2.90;;;25.60;62.90;;;;;;5004534;28;210180;-71
2022/05/20 11:24:10;;;;;;;9.88;2.80;;;25.70;66.50;;;;;;4960749;28;213677;-72
2022/05/20 11:27:05;;;;;;;10.40;3.08;;;26.00;63.30;;;;;;5003781;28;20377;-73
2022/05/20 11:29:53;;;;;;;9.35;2.80;;;26.20;62.40;;;;;;4967440;28;212824;-71
2022/05/20 11:32:26;;;;;;;8.45;3.10;;;26.20;63.00;;;;;;5009708;28;20423;-74
2022/05/20 11:35:00;;;;;;;8.15;3.03;;;26.50;61.80;;;;;;4969161;28;209045;-71
2022/05/20 11:37:51;;;;;;;9.85;3.20;;;26.80;63.40;;;;;;5015939;28;20049;-71
2022/05/20 11:40:23;;;;;;;;;;;27.20;63.00;;;;;;4964392;28;224648;-72
2022/05/20 11:42:55;;;;;;;7.63;2.30;;;27.30;58.00;;;;;;5003869;28;19925;-71
2022/05/20 11:45:48;;;;;;;7.68;2.50;;;27.40;60.30;;;;;;4971031;28;248640;-72
2022/05/20 11:48:36;;;;;;;8.55;2.60;;;27.70;58.60;;;;;;5039839;28;20057;-71
2022/05/20 11:51:11;;;;;;;8.23;3.17;;;27.80;56.70;;;;;;4972353;28;205128;-74
2022/05/20 11:54:00;;;;;;;8.73;2.90;;;27.80;56.70;;;;;;4980978;28;216733;-71
2022/05/20 11:56:30;;;;;;;7.88;2.80;;;27.80;55.50;;;;;;5004909;28;20498;-71
2022/05/20 11:59:15;;;;;;;8.27;2.50;;;27.80;55.20;;;;;;4973788;28;210292;-71
2022/05/20 12:01:43;;;;;;;9.18;2.38;;;27.80;53.20;;;;;;5002061;28;20042;-72
2022/05/20 12:04:10;;;;;;;8.60;2.22;;;27.50;53.70;;;;;;4933602;28;247200;-72
2022/05/20 12:06:45;;;;;;;7.75;1.85;;;27.40;52.90;;;;;;5009500;28;20061;-74
2022/05/20 12:09:32;;;;;;;8.48;1.80;;;27.20;51.00;;;;;;4954205;28;243918;-70
2022/05/20 12:12:21;;;;;;;6.53;1.55;;;26.90;48.20;;;;;;5012127;28;20064;-72
2022/05/20 12:15:13;;;;;;;7.43;1.60;;;26.70;50.00;;;;;;4974873;28;204382;-71
2022/05/20 12:17:39;;;;;;;7.13;1.70;;;26.70;49.70;;;;;;5024038;22;20781;-82
2022/05/20 12:26:11;;;;;;;8.30;2.10;;;26.20;52.20;;;;;;4944411;28;204114;-81
2022/05/20 12:28:42;;;;;;;8.93;2.00;;;26.10;53.40;;;;;;4962690;28;202583;-81
2022/05/20 12:31:22;;;;;;;9.48;2.05;;;26.10;54.10;;;;;;4992183;23;225927;-67
2022/05/20 12:34:03;;;;;;;6.93;1.85;;;26.20;54.70;;;;;;4955453;28;214081;-68
2022/05/20 12:36:29;;;;;;;8.30;2.40;;;26.10;54.90;;;;;;4989446;28;20553;-68
2022/05/20 12:39:08;;;;;;;7.22;2.20;;;26.00;55.60;;;;;;4951642;28;208034;-68
2022/05/20 12:41:54;;;;;;;9.85;3.00;;;26.10;56.60;;;;;;4983584;28;20065;-68
2022/05/20 12:44:20;;;;;;;10.75;2.90;;;26.30;57.60;;;;;;4960060;28;121159;-68
2022/05/20 12:47:05;;;;;;;8.48;2.40;;;26.30;58.00;;;;;;5002278;28;20073;-68
2022/05/20 12:49:47;;;;;;;8.95;2.88;;;26.50;56.90;;;;;;4939568;28;253051;-67
2022/05/20 12:52:49;;;;;;;8.13;2.75;;;26.30;56.50;;;;;;4995328;28;20046;-68
2022/05/20 12:55:21;;;;;;;8.52;2.50;;;26.20;55.90;;;;;;4933661;28;205822;-68
2022/05/20 12:58:06;;;;;;;7.93;2.58;;;26.00;57.80;;;;;;4959476;28;20066;-68
2022/05/20 13:00:44;;;;;;;9.10;2.60;;;25.70;56.40;;;;;;4921275;28;206308;-67
2022/05/20 13:03:25;;;;;;;9.25;2.55;;;25.30;56.20;;;;;;4982887;28;20523;-67
2022/05/20 13:05:58;;;;;;;6.85;2.33;;;24.90;57.10;;;;;;4896255;28;206823;-67
2022/05/20 13:08:30;;;;;;;8.15;2.78;;;24.70;58.10;;;;;;4943589;28;173563;-65
2022/05/20 13:11:10;;;;;;;9.32;2.78;;;24.40;57.90;;;;;;4980844;28;89320;-67
2022/05/20 13:13:37;;;;;;;8.67;2.63;;;24.20;57.30;;;;;;4935819;28;207993;-67
2022/05/20 13:16:06;;;;;;;8.45;2.90;;;23.80;57.50;;;;;;4969021;28;36266;-66
2022/05/20 13:18:40;;;;;;;9.73;2.40;;;23.60;57.60;;;;;;4931332;28;210450;-67
2022/05/20 13:21:19;;;;;;;6.93;2.22;;;23.40;58.90;;;;;;4962115;28;102257;-67
2022/05/20 13:23:49;;;;;;;8.98;2.55;;;23.30;58.50;;;;;;4937320;28;205484;-67
2022/05/20 13:26:26;;;;;;;7.90;2.35;;;23.10;59.60;;;;;;4967499;28;144372;-67
2022/05/20 13:28:58;;;;;;;8.25;2.63;;;23.00;58.70;;;;;;4923068;28;210038;-66
2022/05/20 13:31:26;;;;;;;8.18;2.50;;;22.80;58.90;;;;;;4962604;28;20047;-67
2022/05/20 13:33:53;;;;;;;8.55;3.63;;;22.70;60.60;;;;;;4948656;28;209828;-68
2022/05/20 13:36:22;;;;;;;11.10;4.75;;;22.60;60.70;;;;;;4994628;28;76984;-68